Aviation Digital Data Service (ADDS)

Output produced by METARs form (2210 UTC 23 November 2014)
found at http://aviationweather.gov/adds/metars/
 
KDEN 232113Z 2321/2424 36020G32KT P6SM SCT070 BKN100 BKN200 
     TEMPO 2321/2324 -SHSN BKN060 
     FM240000 30012KT P6SM FEW100 BKN200 
     FM240400 27010KT P6SM FEW120 SCT200 
     FM240900 24010KT P6SM SCT200 
     FM241600 31012G20KT P6SM FEW070 SCT100 BKN220 
     FM241800 33015G30KT P6SM VCSH SCT070 BKN100 BKN200